Time;durP1;ratioP1;P1;durP2;ratioP2;P2;SDS_P1;SDS_P2;PMS_P1;PMS_P2;Temp;Humidity;BMP_temperature;BMP_pressure;BME280_temperature;BME280_humidity;BME280_pressure;Samples;Min_cycle;Max_cycle;Signal;HPM_P1;HPM_P2
2022/11/01 00:01:42;;;;;;;120.85;52.58;;;9.50;99.90;;;;;;5012274;28;20089;-71
2022/11/01 00:04:08;;;;;;;363.85;101.93;;;9.50;99.90;;;;;;5011973;28;20117;-71
2022/11/01 00:06:36;;;;;;;149.50;54.42;;;9.50;99.90;;;;;;5013395;28;20065;-73
2022/11/01 00:09:03;;;;;;;356.05;94.20;;;9.60;99.90;;;;;;5011589;28;20060;-73
2022/11/01 00:11:29;;;;;;;147.32;58.20;;;9.50;99.90;;;;;;5011366;28;20033;-75
2022/11/01 00:13:55;;;;;;;250.82;69.28;;;9.50;99.90;;;;;;5012329;28;20054;-71
2022/11/01 00:16:21;;;;;;;313.42;82.45;;;9.30;99.90;;;;;;5012111;28;20030;-73
2022/11/01 00:18:47;;;;;;;117.90;54.88;;;9.20;99.90;;;;;;5012360;28;20474;-72
2022/11/01 00:21:14;;;;;;;131.45;57.85;;;9.30;99.90;;;;;;5012489;28;20403;-71
2022/11/01 00:23:41;;;;;;;310.13;89.75;;;9.40;99.90;;;;;;5011739;28;20034;-71
2022/11/01 00:26:07;;;;;;;163.07;55.30;;;9.30;99.90;;;;;;5023178;28;20022;-73
2022/11/01 00:28:34;;;;;;;200.23;61.90;;;9.40;99.90;;;;;;5013716;28;20030;-74
2022/11/01 00:31:00;;;;;;;346.77;88.88;;;9.40;99.90;;;;;;5012146;28;20046;-72
2022/11/01 00:33:26;;;;;;;147.15;57.50;;;9.40;99.90;;;;;;5027850;28;20042;-71
2022/11/01 00:35:52;;;;;;;164.77;58.17;;;9.40;99.90;;;;;;5023387;28;20387;-75
2022/11/01 00:38:18;;;;;;;132.35;54.78;;;9.40;99.90;;;;;;5020601;28;20041;-72
2022/11/01 00:40:44;;;;;;;105.95;52.28;;;9.50;99.90;;;;;;5042134;28;20024;-71
2022/11/01 00:43:11;;;;;;;149.60;54.60;;;9.50;99.90;;;;;;5052471;28;20036;-72
2022/11/01 00:45:37;;;;;;;126.18;54.75;;;9.40;99.90;;;;;;5048402;28;20222;-71
2022/11/01 00:48:04;;;;;;;379.92;93.35;;;9.40;99.90;;;;;;5052261;28;20036;-72
2022/11/01 00:50:29;;;;;;;239.93;70.35;;;9.30;99.90;;;;;;5036590;28;20032;-71
2022/11/01 00:52:55;;;;;;;176.80;63.72;;;9.20;99.90;;;;;;5052139;28;20040;-71
2022/11/01 00:55:21;;;;;;;151.38;56.45;;;9.30;99.90;;;;;;5052624;28;20021;-74
2022/11/01 00:57:47;;;;;;;210.93;66.43;;;9.30;99.90;;;;;;5052230;28;20040;-73
2022/11/01 01:00:14;;;;;;;130.15;51.88;;;9.30;99.90;;;;;;5045483;28;20414;-71
2022/11/01 01:02:40;;;;;;;114.03;50.78;;;9.20;99.90;;;;;;5052476;28;20029;-75
2022/11/01 01:05:07;;;;;;;147.30;55.88;;;9.30;99.90;;;;;;5052212;28;20406;-72
2022/11/01 01:07:33;;;;;;;116.25;50.78;;;9.30;99.90;;;;;;5051898;28;20029;-72
2022/11/01 01:09:58;;;;;;;203.50;64.82;;;9.30;99.90;;;;;;5047841;28;20430;-72
2022/11/01 01:12:24;;;;;;;117.63;49.58;;;9.20;99.90;;;;;;5030966;28;20055;-73
2022/11/01 01:14:50;;;;;;;247.25;68.07;;;9.10;99.90;;;;;;5052070;28;20430;-74
2022/11/01 01:17:17;;;;;;;176.93;59.20;;;9.10;99.90;;;;;;5052248;28;20360;-72
2022/11/01 01:19:43;;;;;;;158.55;52.13;;;9.10;99.90;;;;;;5051901;28;20025;-73
2022/11/01 01:22:09;;;;;;;150.10;54.15;;;9.10;99.90;;;;;;5040026;28;20135;-73
2022/11/01 01:24:35;;;;;;;146.35;56.30;;;9.20;99.90;;;;;;5051923;28;20029;-73
2022/11/01 01:27:02;;;;;;;192.43;60.35;;;9.10;99.90;;;;;;5051717;28;20028;-73
2022/11/01 01:29:28;;;;;;;175.00;60.15;;;9.20;99.90;;;;;;5051648;28;20148;-72
2022/11/01 01:31:54;;;;;;;222.80;65.93;;;9.20;99.90;;;;;;5034893;28;20112;-71
2022/11/01 01:34:20;;;;;;;114.72;50.10;;;9.20;99.90;;;;;;5024165;28;20026;-72
2022/11/01 01:36:46;;;;;;;103.60;49.08;;;9.10;99.90;;;;;;5015092;28;20037;-72
2022/11/01 01:39:12;;;;;;;115.55;52.72;;;9.20;99.90;;;;;;5010632;28;20026;-73
2022/11/01 01:41:56;;;;;;;222.38;70.85;;;9.30;99.90;;;;;;5015081;28;20030;-73
2022/11/01 01:44:50;;;;;;;137.27;54.67;;;9.10;99.90;;;;;;5014826;28;20026;-71
2022/11/01 01:47:21;;;;;;;112.45;50.67;;;9.20;99.90;;;;;;5014411;28;20101;-73
2022/11/01 01:49:52;;;;;;;151.25;57.97;;;9.20;99.90;;;;;;5014857;28;20076;-77
2022/11/01 01:52:19;;;;;;;139.15;54.83;;;9.10;99.90;;;;;;5019228;28;20029;-72
2022/11/01 01:54:45;;;;;;;183.73;58.78;;;9.20;99.90;;;;;;5035365;28;20435;-77
2022/11/01 01:57:11;;;;;;;124.72;56.55;;;9.20;99.90;;;;;;5042986;28;20501;-72
2022/11/01 01:59:38;;;;;;;210.70;64.68;;;9.30;99.90;;;;;;5050977;28;20394;-73
2022/11/01 02:02:04;;;;;;;164.18;58.80;;;9.20;99.90;;;;;;5055599;28;20044;-76
2022/11/01 02:04:36;;;;;;;265.58;74.25;;;9.20;99.90;;;;;;5055473;28;20027;-74
2022/11/01 02:07:02;;;;;;;105.60;52.67;;;9.20;99.90;;;;;;5055792;28;20033;-74
2022/11/01 02:09:29;;;;;;;139.25;55.13;;;9.30;99.90;;;;;;5055067;28;20012;-73
2022/11/01 02:11:56;;;;;;;125.82;53.00;;;9.20;99.90;;;;;;5052620;28;20372;-72
2022/11/01 02:14:23;;;;;;;132.43;51.15;;;9.30;99.90;;;;;;5055349;28;20051;-72
2022/11/01 02:17:01;;;;;;;146.50;58.83;;;9.30;99.90;;;;;;5055301;28;20492;-73
2022/11/01 02:19:54;;;;;;;210.85;66.78;;;9.20;99.90;;;;;;5055443;28;20059;-72
2022/11/01 02:23:01;;;;;;;166.18;62.83;;;9.30;99.90;;;;;;5055551;28;20022;-74
2022/11/01 02:26:00;;;;;;;372.55;93.00;;;9.30;99.90;;;;;;5054830;28;20028;-73
2022/11/01 02:28:32;;;;;;;258.95;73.05;;;9.20;99.90;;;;;;5055283;28;20124;-73
2022/11/01 02:31:16;;;;;;;247.82;71.18;;;9.10;99.90;;;;;;5055126;28;20028;-72
2022/11/01 02:33:43;;;;;;;126.38;56.53;;;9.10;99.90;;;;;;5055090;28;20044;-73
2022/11/01 02:36:41;;;;;;;117.93;56.33;;;9.30;99.90;;;;;;5054299;28;20021;-73
2022/11/01 02:39:15;;;;;;;234.20;74.13;;;9.30;99.90;;;;;;4993371;28;20197;-73
2022/11/01 02:41:50;;;;;;;144.43;60.10;;;9.30;99.90;;;;;;4993293;28;20436;-74
2022/11/01 02:44:23;;;;;;;291.50;80.53;;;9.30;99.90;;;;;;4993255;28;20559;-74
2022/11/01 02:47:02;;;;;;;147.55;60.28;;;9.10;99.90;;;;;;4993245;28;20030;-73
2022/11/01 02:49:30;;;;;;;134.95;61.35;;;9.20;99.90;;;;;;4993295;28;20042;-73
2022/11/01 02:51:58;;;;;;;185.80;69.88;;;9.30;99.90;;;;;;4992678;28;20045;-74
2022/11/01 02:54:30;;;;;;;185.27;66.45;;;9.30;99.90;;;;;;4993239;28;20034;-72
2022/11/01 02:56:58;;;;;;;;;;;9.30;99.90;;;;;;4993390;28;20045;-72
2022/11/01 02:59:27;;;;;;;162.73;56.45;;;9.30;99.90;;;;;;4993137;28;19906;-73
2022/11/01 03:02:09;;;;;;;145.30;59.70;;;9.30;99.90;;;;;;4993073;28;20493;-73
2022/11/01 03:04:35;;;;;;;343.27;92.17;;;9.30;99.90;;;;;;4992986;28;20049;-74
2022/11/01 03:07:06;;;;;;;282.70;78.90;;;9.10;99.90;;;;;;4993078;28;20034;-73
2022/11/01 03:09:33;;;;;;;178.30;65.28;;;9.20;99.90;;;;;;4992707;28;20043;-74
2022/11/01 03:12:05;;;;;;;204.18;66.40;;;9.30;99.90;;;;;;4991597;28;20026;-73
2022/11/01 03:14:40;;;;;;;229.75;71.63;;;9.20;99.90;;;;;;4997422;28;20081;-72
2022/11/01 03:17:12;;;;;;;167.70;60.70;;;9.20;99.90;;;;;;5042559;28;20375;-73
2022/11/01 03:20:09;;;;;;;117.07;48.35;;;9.20;99.90;;;;;;5047426;28;20022;-73
2022/11/01 03:22:47;;;;;;;103.05;48.22;;;9.10;99.90;;;;;;5048156;28;20387;-74
2022/11/01 03:25:43;;;;;;;284.08;75.28;;;9.20;99.90;;;;;;5046960;28;20467;-74
2022/11/01 03:28:26;;;;;;;138.77;50.15;;;9.10;99.90;;;;;;5052401;28;20041;-75
2022/11/01 03:31:15;;;;;;;194.23;61.55;;;9.20;99.90;;;;;;5053904;28;20479;-74
2022/11/01 03:33:57;;;;;;;352.35;91.32;;;9.10;99.90;;;;;;5053947;28;20041;-73
2022/11/01 03:36:26;;;;;;;128.52;46.25;;;9.00;99.90;;;;;;5051453;28;20033;-74
2022/11/01 03:39:08;;;;;;;97.63;47.95;;;9.10;99.90;;;;;;5042917;28;20049;-74
2022/11/01 03:41:39;;;;;;;95.00;42.88;;;9.20;99.90;;;;;;5053666;28;20029;-73
2022/11/01 03:44:06;;;;;;;84.38;39.60;;;9.20;99.90;;;;;;5053589;28;20068;-75
2022/11/01 03:46:32;;;;;;;277.65;70.30;;;9.20;99.90;;;;;;5052785;28;20029;-74
2022/11/01 03:48:58;;;;;;;168.40;48.72;;;9.00;99.90;;;;;;5053822;28;20396;-74
2022/11/01 03:51:24;;;;;;;151.38;41.92;;;9.00;99.90;;;;;;5052028;28;20032;-73
2022/11/01 03:53:49;;;;;;;94.38;40.22;;;8.90;99.90;;;;;;5053491;28;20040;-74
2022/11/01 03:56:15;;;;;;;218.55;62.42;;;9.00;99.90;;;;;;5053743;28;20029;-73
2022/11/01 03:58:41;;;;;;;176.55;56.47;;;9.00;99.90;;;;;;5053150;28;20056;-74
2022/11/01 04:01:11;;;;;;;81.25;36.08;;;8.90;99.90;;;;;;5053451;28;20017;-77
2022/11/01 04:03:37;;;;;;;140.68;44.58;;;9.00;99.90;;;;;;5052360;28;20482;-73
2022/11/01 04:06:04;;;;;;;109.68;38.95;;;8.90;99.90;;;;;;5053431;28;20048;-74
2022/11/01 04:08:31;;;;;;;84.22;35.30;;;8.90;99.90;;;;;;5053055;28;20033;-73
2022/11/01 04:10:56;;;;;;;97.72;38.28;;;9.00;99.90;;;;;;5053228;28;20079;-73
2022/11/01 04:13:22;;;;;;;122.43;43.40;;;8.90;99.90;;;;;;5053065;28;20553;-75
2022/11/01 04:21:20;;;;;;;90.45;34.58;;;9.00;99.90;;;;;;5029956;28;20029;-73
2022/11/01 04:23:47;;;;;;;103.55;38.70;;;9.00;99.90;;;;;;5038718;28;20056;-72
2022/11/01 04:26:15;;;;;;;126.53;36.75;;;9.00;99.90;;;;;;5052866;28;20036;-74
2022/11/01 04:28:43;;;;;;;60.30;32.63;;;9.10;99.90;;;;;;5052404;28;20115;-74
2022/11/01 04:31:09;;;;;;;83.50;35.38;;;9.10;99.90;;;;;;5038043;28;20040;-74
2022/11/01 04:33:35;;;;;;;71.03;33.90;;;9.10;99.90;;;;;;5052261;28;20487;-74
2022/11/01 04:36:05;;;;;;;82.93;37.40;;;9.10;99.90;;;;;;5052604;28;20028;-73
2022/11/01 04:38:31;;;;;;;65.65;34.88;;;9.20;99.90;;;;;;5025123;28;20480;-75
2022/11/01 04:40:57;;;;;;;68.38;36.08;;;9.20;99.90;;;;;;5038987;28;20032;-74
2022/11/01 04:43:23;;;;;;;58.00;32.30;;;9.30;99.90;;;;;;5051857;28;20048;-73
2022/11/01 04:45:55;;;;;;;159.93;50.72;;;9.40;99.90;;;;;;5052353;28;20025;-74
2022/11/01 04:48:22;;;;;;;;;;;9.30;99.90;;;;;;5037001;28;20032;-74
2022/11/01 04:50:47;;;;;;;110.65;33.45;;;9.30;99.90;;;;;;5038393;28;19987;-73
2022/11/01 04:53:13;;;;;;;326.23;71.45;;;9.30;99.90;;;;;;5048866;28;20047;-74
2022/11/01 04:55:39;;;;;;;100.25;37.60;;;9.00;99.90;;;;;;5052413;28;20025;-76
2022/11/01 04:58:05;;;;;;;174.63;51.22;;;9.10;99.90;;;;;;5052114;28;20036;-74
2022/11/01 05:00:32;;;;;;;60.28;33.40;;;9.00;99.90;;;;;;5052250;28;20013;-74
2022/11/01 05:03:02;;;;;;;84.43;37.15;;;9.10;99.90;;;;;;5051756;28;20515;-74
2022/11/01 05:05:28;;;;;;;65.47;36.05;;;9.20;99.90;;;;;;5050430;28;20109;-74
2022/11/01 05:08:05;;;;;;;67.30;35.25;;;9.30;99.90;;;;;;5051618;28;20104;-74
2022/11/01 05:10:32;;;;;;;67.22;33.55;;;9.30;99.90;;;;;;5046903;28;20121;-74
2022/11/01 05:12:58;;;;;;;66.93;35.28;;;9.40;99.90;;;;;;5042661;28;20091;-74
2022/11/01 05:15:24;;;;;;;84.20;34.22;;;9.40;99.90;;;;;;5051138;28;20182;-74
2022/11/01 05:17:50;;;;;;;60.35;31.98;;;9.30;99.90;;;;;;5042408;28;20482;-75
2022/11/01 05:20:16;;;;;;;48.25;28.67;;;9.30;99.90;;;;;;5043976;28;20029;-73
2022/11/01 05:22:41;;;;;;;47.85;30.15;;;9.40;99.90;;;;;;5034903;28;20018;-75
2022/11/01 05:25:10;;;;;;;47.78;29.80;;;9.50;99.90;;;;;;5031936;28;20033;-73
2022/11/01 05:27:39;;;;;;;45.75;29.92;;;9.60;99.90;;;;;;5050195;28;20018;-74
2022/11/01 05:30:06;;;;;;;115.13;35.72;;;9.60;99.90;;;;;;5051543;28;20080;-75
2022/11/01 05:32:34;;;;;;;127.18;43.65;;;9.40;99.90;;;;;;5033992;28;20053;-73
2022/11/01 05:35:00;;;;;;;118.18;36.55;;;9.30;99.90;;;;;;5050757;28;20127;-74
2022/11/01 05:37:26;;;;;;;113.53;38.67;;;9.30;99.90;;;;;;5040394;28;20029;-74
2022/11/01 05:39:52;;;;;;;91.93;31.60;;;9.10;99.90;;;;;;5048879;28;20509;-73
2022/11/01 05:42:18;;;;;;;104.75;32.72;;;9.10;99.90;;;;;;5051827;28;20024;-74
2022/11/01 05:44:44;;;;;;;53.22;28.15;;;9.20;99.90;;;;;;5038365;28;20034;-74
2022/11/01 05:47:09;;;;;;;84.95;30.40;;;9.20;99.90;;;;;;5044374;28;20017;-73
2022/11/01 05:49:35;;;;;;;60.85;29.42;;;9.10;99.90;;;;;;5036925;28;20045;-73
2022/11/01 05:52:01;;;;;;;70.07;30.60;;;9.20;99.90;;;;;;5046720;28;20021;-73
2022/11/01 05:54:27;;;;;;;59.85;31.30;;;9.30;99.90;;;;;;5030727;28;20034;-73
2022/11/01 05:56:52;;;;;;;59.75;29.08;;;9.30;99.90;;;;;;5041278;28;20052;-73
2022/11/01 05:59:18;;;;;;;160.68;42.75;;;9.30;99.90;;;;;;5051141;28;20132;-74
2022/11/01 06:01:44;;;;;;;220.55;54.40;;;9.10;99.90;;;;;;5049456;28;20112;-74
2022/11/01 06:04:10;;;;;;;86.13;27.08;;;9.10;99.90;;;;;;5050555;28;20555;-74
2022/11/01 06:06:36;;;;;;;67.20;29.10;;;9.20;99.90;;;;;;5044251;28;20112;-74
2022/11/01 06:09:02;;;;;;;88.57;30.45;;;9.30;99.90;;;;;;5047868;28;20103;-73
2022/11/01 06:11:27;;;;;;;56.83;27.30;;;9.30;99.90;;;;;;5042716;28;20108;-74
2022/11/01 06:13:54;;;;;;;91.95;33.35;;;9.30;99.90;;;;;;5044041;28;20056;-74
2022/11/01 06:16:21;;;;;;;93.85;35.60;;;9.30;99.90;;;;;;5045268;28;20072;-73
2022/11/01 06:18:46;;;;;;;64.20;31.38;;;9.30;99.90;;;;;;5039357;28;20511;-74
2022/11/01 06:21:12;;;;;;;141.82;44.70;;;9.40;99.90;;;;;;5043448;28;20018;-73
2022/11/01 06:23:38;;;;;;;72.15;32.40;;;9.30;99.90;;;;;;5044596;28;20033;-74
2022/11/01 06:26:05;;;;;;;56.95;31.27;;;9.40;99.90;;;;;;5034944;28;20028;-74
2022/11/01 06:28:31;;;;;;;72.72;31.33;;;9.60;99.90;;;;;;5036028;28;20026;-73
2022/11/01 06:31:01;;;;;;;52.80;29.13;;;9.60;99.90;;;;;;5042901;28;20356;-75
2022/11/01 06:33:28;;;;;;;65.97;30.63;;;9.60;99.90;;;;;;5043900;28;20029;-74
2022/11/01 06:35:53;;;;;;;60.28;33.17;;;9.60;99.90;;;;;;5041300;28;20487;-74
2022/11/01 06:38:19;;;;;;;60.17;31.90;;;9.70;99.90;;;;;;5039045;28;20039;-75
2022/11/01 06:40:46;;;;;;;59.50;30.90;;;9.70;99.90;;;;;;5048567;28;20033;-74
2022/11/01 06:43:12;;;;;;;84.32;34.08;;;9.70;99.90;;;;;;5042074;28;20432;-74
2022/11/01 06:45:38;;;;;;;68.18;30.95;;;9.70;99.90;;;;;;5054179;28;20044;-74
2022/11/01 06:48:04;;;;;;;63.25;32.53;;;9.70;99.90;;;;;;5043821;28;20064;-74
2022/11/01 06:50:30;;;;;;;68.20;31.60;;;9.90;99.90;;;;;;5046633;28;20047;-74
2022/11/01 06:52:57;;;;;;;88.15;32.15;;;10.00;99.90;;;;;;5048798;28;20532;-73
2022/11/01 06:55:24;;;;;;;60.47;25.33;;;9.80;99.90;;;;;;5049622;28;20105;-74
2022/11/01 06:57:57;;;;;;;45.78;24.88;;;9.90;99.90;;;;;;5043301;28;20029;-74
2022/11/01 07:00:24;;;;;;;41.95;25.42;;;9.90;99.90;;;;;;5050098;28;20470;-74
2022/11/01 07:03:03;;;;;;;53.20;25.77;;;10.10;99.90;;;;;;5053242;28;20025;-74
2022/11/01 07:05:31;;;;;;;40.35;26.02;;;10.10;99.90;;;;;;5046078;28;20026;-74
2022/11/01 07:07:57;;;;;;;39.78;24.30;;;10.10;99.90;;;;;;5034659;28;20033;-74
2022/11/01 07:10:23;;;;;;;43.97;25.88;;;10.20;99.90;;;;;;5037745;28;20033;-74
2022/11/01 07:12:49;;;;;;;46.17;25.75;;;10.30;99.90;;;;;;5053609;28;20056;-74
2022/11/01 07:15:15;;;;;;;38.17;25.73;;;10.30;99.90;;;;;;5049459;28;20136;-74
2022/11/01 07:17:41;;;;;;;48.15;27.67;;;10.50;99.90;;;;;;5039902;28;20119;-74
2022/11/01 07:20:07;;;;;;;37.20;24.83;;;10.50;99.90;;;;;;5042838;28;20037;-74
2022/11/01 07:22:33;;;;;;;38.40;25.40;;;10.50;99.90;;;;;;5053783;28;20108;-74
2022/11/01 07:24:59;;;;;;;49.28;28.95;;;10.60;99.90;;;;;;5038568;28;20105;-74
2022/11/01 07:27:25;;;;;;;42.92;25.60;;;10.60;99.90;;;;;;5022398;28;20029;-74
2022/11/01 07:29:50;;;;;;;40.05;26.13;;;10.60;99.90;;;;;;5053512;28;20467;-74
2022/11/01 07:32:16;;;;;;;63.42;28.63;;;10.70;99.90;;;;;;5044622;28;20491;-74
2022/11/01 07:34:42;;;;;;;42.17;26.52;;;10.70;99.90;;;;;;5045373;28;20033;-74
2022/11/01 07:37:08;;;;;;;43.40;27.83;;;10.80;99.90;;;;;;5040298;28;20101;-74
2022/11/01 07:39:34;;;;;;;57.67;31.95;;;10.90;99.90;;;;;;5037786;28;20507;-74
2022/11/01 07:42:00;;;;;;;59.30;32.47;;;10.80;99.90;;;;;;5039882;28;20021;-74
2022/11/01 07:44:26;;;;;;;46.08;29.63;;;10.80;99.90;;;;;;5037208;28;20464;-74
2022/11/01 07:46:51;;;;;;;50.25;28.95;;;11.00;99.90;;;;;;5051768;28;20098;-73
2022/11/01 07:49:17;;;;;;;44.00;29.20;;;11.10;99.90;;;;;;5047610;28;20036;-74
2022/11/01 07:51:43;;;;;;;49.97;29.63;;;11.10;99.90;;;;;;5050003;28;20055;-74
2022/11/01 07:54:10;;;;;;;43.08;27.52;;;11.10;99.90;;;;;;5053022;28;20037;-74
2022/11/01 07:56:36;;;;;;;44.50;26.50;;;11.20;99.90;;;;;;5025249;28;20105;-74
2022/11/01 07:59:01;;;;;;;41.60;26.23;;;11.30;99.90;;;;;;5053173;28;20155;-74
2022/11/01 08:01:27;;;;;;;44.83;28.75;;;11.30;99.90;;;;;;5047017;28;20018;-77
2022/11/01 08:03:53;;;;;;;49.22;27.83;;;11.10;99.90;;;;;;5052170;28;20062;-74
2022/11/01 08:06:19;;;;;;;41.65;27.88;;;11.00;99.90;;;;;;5041332;28;20056;-74
2022/11/01 08:08:45;;;;;;;47.58;30.48;;;11.20;99.90;;;;;;5034792;28;20100;-74
2022/11/01 08:11:11;;;;;;;57.17;35.78;;;11.40;99.90;;;;;;5051888;28;20029;-76
2022/11/01 08:13:36;;;;;;;54.88;33.33;;;11.40;99.90;;;;;;5049312;28;20095;-74
2022/11/01 08:16:02;;;;;;;51.75;32.05;;;11.50;99.90;;;;;;5038720;28;20064;-75
2022/11/01 08:18:29;;;;;;;48.83;31.10;;;11.60;99.90;;;;;;5045529;28;20064;-74
2022/11/01 08:20:56;;;;;;;48.90;34.28;;;11.70;99.90;;;;;;5037739;28;20074;-74
2022/11/01 08:23:22;;;;;;;53.40;34.92;;;11.80;99.90;;;;;;5052332;28;20035;-74
2022/11/01 08:25:48;;;;;;;52.47;32.70;;;11.90;99.90;;;;;;5035080;28;20021;-74
2022/11/01 08:28:17;;;;;;;51.75;33.40;;;12.00;99.90;;;;;;5041230;28;20036;-75
2022/11/01 08:30:45;;;;;;;47.85;32.70;;;12.10;99.90;;;;;;5036020;28;20023;-75
2022/11/01 08:33:11;;;;;;;52.25;34.33;;;12.20;99.90;;;;;;5032187;28;20036;-74
2022/11/01 08:35:37;;;;;;;52.85;35.35;;;12.20;99.90;;;;;;5036070;28;20449;-75
2022/11/01 08:38:03;;;;;;;48.15;34.08;;;12.30;99.90;;;;;;5031948;28;20029;-75
2022/11/01 08:40:31;;;;;;;50.25;35.10;;;12.60;99.90;;;;;;5035526;28;20503;-75
2022/11/01 08:42:58;;;;;;;56.33;33.90;;;12.70;99.90;;;;;;5039047;28;20482;-75
2022/11/01 08:45:25;;;;;;;51.40;34.22;;;12.70;99.90;;;;;;5045746;28;20049;-75
2022/11/01 08:48:03;;;;;;;43.05;31.45;;;12.60;99.90;;;;;;5034266;28;20116;-76
2022/11/01 08:50:30;;;;;;;45.47;30.48;;;12.40;99.90;;;;;;5049084;28;20032;-76
2022/11/01 08:52:56;;;;;;;52.88;32.65;;;12.30;99.90;;;;;;5036289;28;20487;-76
2022/11/01 08:55:22;;;;;;;45.63;30.17;;;12.40;99.90;;;;;;5046022;28;20412;-76
2022/11/01 08:57:48;;;;;;;51.85;30.20;;;12.50;99.90;;;;;;5051988;28;20052;-75
2022/11/01 09:00:15;;;;;;;46.15;32.45;;;12.60;99.90;;;;;;5052104;28;20044;-76
2022/11/01 09:02:42;;;;;;;43.80;31.52;;;12.70;99.90;;;;;;5051887;28;20399;-75
2022/11/01 09:05:08;;;;;;;51.75;33.30;;;12.90;99.90;;;;;;5048255;28;20033;-75
2022/11/01 09:07:36;;;;;;;50.05;34.20;;;13.10;99.90;;;;;;5051963;28;20029;-75
2022/11/01 09:10:03;;;;;;;45.50;33.28;;;13.30;99.90;;;;;;5051488;28;20029;-76
2022/11/01 09:12:29;;;;;;;44.45;31.83;;;13.50;99.90;;;;;;5051826;28;20121;-75
2022/11/01 09:14:54;;;;;;;43.50;30.80;;;13.50;99.90;;;;;;5035550;28;20132;-75
2022/11/01 09:17:20;;;;;;;42.42;31.13;;;13.60;99.90;;;;;;5012165;28;20026;-76
2022/11/01 09:19:46;;;;;;;49.25;32.67;;;13.50;99.90;;;;;;5037825;28;20062;-76
2022/11/01 09:22:12;;;;;;;47.25;32.22;;;13.70;99.90;;;;;;5037660;28;20025;-76
2022/11/01 09:24:38;;;;;;;59.58;35.17;;;13.50;99.90;;;;;;5046588;28;20033;-76
2022/11/01 09:27:06;;;;;;;140.02;76.63;;;13.50;99.90;;;;;;5036779;28;20025;-75
2022/11/01 09:29:32;;;;;;;99.57;53.00;;;13.40;99.90;;;;;;5035823;28;20384;-75
2022/11/01 09:31:58;;;;;;;57.40;38.33;;;13.40;99.90;;;;;;5031663;28;20029;-75
2022/11/01 09:34:24;;;;;;;82.45;51.50;;;13.40;99.90;;;;;;5034317;28;20040;-76
2022/11/01 09:36:50;;;;;;;75.68;46.55;;;13.50;99.90;;;;;;5035435;28;20450;-75
2022/11/01 09:39:19;;;;;;;53.30;34.60;;;13.50;99.90;;;;;;5034201;28;20029;-75
2022/11/01 09:41:51;;;;;;;52.25;35.95;;;13.50;99.90;;;;;;5043457;28;20021;-76
2022/11/01 09:44:22;;;;;;;50.40;35.88;;;13.70;99.90;;;;;;5039242;28;20017;-76
2022/11/01 09:47:21;;;;;;;50.53;36.45;;;13.90;99.90;;;;;;5046336;28;20025;-76
2022/11/01 09:49:51;;;;;;;54.20;37.63;;;13.70;99.90;;;;;;5037114;28;20519;-76
2022/11/01 09:52:21;;;;;;;57.38;38.35;;;13.90;99.90;;;;;;5039511;28;20411;-76
2022/11/01 09:54:47;;;;;;;57.15;36.60;;;14.10;99.90;;;;;;5051514;28;20032;-76
2022/11/01 09:57:28;;;;;;;54.95;37.63;;;14.20;99.90;;;;;;5051770;28;20028;-75
2022/11/01 10:00:16;;;;;;;54.47;39.25;;;14.40;99.90;;;;;;5037176;28;20033;-76
2022/11/01 10:02:57;;;;;;;50.20;33.00;;;14.50;99.90;;;;;;5039700;28;20033;-75
2022/11/01 10:05:34;;;;;;;45.60;32.35;;;14.30;99.90;;;;;;5049337;28;20022;-75
2022/11/01 10:08:26;;;;;;;46.45;34.75;;;14.30;99.90;;;;;;5045940;28;20089;-76
2022/11/01 10:11:23;;;;;;;53.72;37.35;;;14.20;99.90;;;;;;5055279;28;20036;-76
2022/11/01 10:13:55;;;;;;;54.67;35.38;;;14.30;99.90;;;;;;5054651;28;20057;-76
2022/11/01 10:16:35;;;;;;;56.03;36.67;;;14.40;99.90;;;;;;5055114;28;20063;-76
2022/11/01 10:19:20;;;;;;;51.55;37.42;;;14.40;99.90;;;;;;5055029;28;20687;-76
2022/11/01 10:21:53;;;;;;;50.25;33.85;;;14.50;99.90;;;;;;5042909;28;20033;-76
2022/11/01 10:24:45;;;;;;;;;;;14.60;99.90;;;;;;5054676;28;20025;-75
2022/11/01 10:27:21;;;;;;;53.20;35.15;;;14.60;99.90;;;;;;5054318;28;19939;-76
2022/11/01 10:30:00;;;;;;;52.47;36.58;;;14.90;99.90;;;;;;5043367;28;20487;-76
2022/11/01 10:32:46;;;;;;;56.80;38.03;;;15.00;99.90;;;;;;5054978;28;20056;-76
2022/11/01 10:35:42;;;;;;;65.30;39.83;;;15.10;99.90;;;;;;5054955;28;20025;-75
2022/11/01 10:38:19;;;;;;;68.22;42.70;;;15.20;99.90;;;;;;5031810;28;20018;-76
2022/11/01 10:41:13;;;;;;;58.85;37.53;;;15.30;99.90;;;;;;5045157;28;20120;-76
2022/11/01 10:43:50;;;;;;;65.82;41.40;;;15.40;99.90;;;;;;5052715;28;20565;-76
2022/11/01 10:46:26;;;;;;;57.42;40.95;;;15.40;99.90;;;;;;5040651;28;20523;-76
2022/11/01 10:49:03;;;;;;;52.42;37.72;;;15.50;99.90;;;;;;5045351;28;20025;-75
2022/11/01 10:51:32;;;;;;;67.38;39.50;;;15.60;99.90;;;;;;5045114;28;20053;-76
2022/11/01 10:54:02;;;;;;;60.22;40.33;;;15.70;99.90;;;;;;5049886;28;20041;-76
2022/11/01 10:56:36;;;;;;;65.45;44.38;;;15.70;99.90;;;;;;5048629;28;20025;-75
2022/11/01 10:59:06;;;;;;;65.03;43.35;;;15.90;99.90;;;;;;5047458;28;20464;-75
2022/11/01 11:01:41;;;;;;;56.15;38.90;;;15.90;99.90;;;;;;5036133;28;20032;-74
2022/11/01 11:04:12;;;;;;;59.05;40.45;;;16.20;99.90;;;;;;5028250;28;20035;-75
2022/11/01 11:06:39;;;;;;;56.63;39.20;;;16.20;99.90;;;;;;5040511;28;20156;-76
2022/11/01 11:09:06;;;;;;;49.75;37.38;;;16.30;99.90;;;;;;5047343;28;20017;-76
2022/11/01 11:11:39;;;;;;;59.58;38.97;;;16.40;99.90;;;;;;5033075;28;20111;-76
2022/11/01 11:14:07;;;;;;;58.50;40.80;;;16.50;99.90;;;;;;5052858;28;20399;-77
2022/11/01 11:16:55;;;;;;;54.08;38.17;;;16.60;99.90;;;;;;5054142;28;20044;-76
2022/11/01 11:19:37;;;;;;;47.95;34.22;;;16.70;99.90;;;;;;5046546;28;20067;-76
2022/11/01 11:22:06;;;;;;;51.95;35.45;;;16.80;99.90;;;;;;5039237;28;20375;-76
2022/11/01 11:24:40;;;;;;;51.17;37.28;;;16.90;99.90;;;;;;5053981;28;20021;-76
2022/11/01 11:27:22;;;;;;;51.83;32.08;;;17.00;99.90;;;;;;5053613;28;20033;-76
2022/11/01 11:29:53;;;;;;;49.60;33.67;;;17.10;99.90;;;;;;5039523;28;20025;-76
2022/11/01 11:32:32;;;;;;;43.55;33.38;;;17.10;99.90;;;;;;5043207;28;20464;-74
2022/11/01 11:35:15;;;;;;;46.85;32.28;;;17.20;99.90;;;;;;5045071;28;20421;-74
2022/11/01 11:37:57;;;;;;;45.67;31.65;;;17.20;99.90;;;;;;5037506;28;20026;-74
2022/11/01 11:40:25;;;;;;;44.55;30.70;;;17.30;99.90;;;;;;5045903;28;20042;-74
2022/11/01 11:42:53;;;;;;;43.55;31.02;;;17.20;99.90;;;;;;5036806;28;20048;-76
2022/11/01 11:45:29;;;;;;;45.28;32.03;;;17.30;99.90;;;;;;5033244;28;20036;-76
2022/11/01 11:48:12;;;;;;;52.85;32.63;;;17.30;99.90;;;;;;5033986;28;20030;-76
2022/11/01 11:50:39;;;;;;;42.13;30.63;;;17.40;99.90;;;;;;5036577;28;20029;-76
2022/11/01 11:53:22;;;;;;;44.00;31.33;;;17.40;99.90;;;;;;5050106;28;20033;-74
2022/11/01 11:55:57;;;;;;;40.83;28.83;;;17.40;99.90;;;;;;5037434;28;20033;-76
2022/11/01 11:58:28;;;;;;;40.63;29.05;;;17.60;99.90;;;;;;5033250;28;20030;-74
2022/11/01 12:01:07;;;;;;;48.03;29.70;;;17.70;99.90;;;;;;5036468;28;20025;-74
2022/11/01 12:03:49;;;;;;;42.42;29.02;;;17.80;99.90;;;;;;5038124;28;20306;-74
2022/11/01 12:06:21;;;;;;;37.65;27.88;;;17.90;99.90;;;;;;5044347;28;20033;-75
2022/11/01 12:08:53;;;;;;;40.70;27.75;;;18.00;99.90;;;;;;5046051;28;20593;-75
2022/11/01 12:11:20;;;;;;;52.07;26.87;;;18.00;99.90;;;;;;5039838;28;20032;-74
2022/11/01 12:14:21;;;;;;;39.42;24.50;;;18.00;99.90;;;;;;5039904;28;20037;-73
2022/11/01 12:16:47;;;;;;;42.45;27.25;;;18.00;99.90;;;;;;4952295;29;20042;-75
2022/11/01 12:19:26;;;;;;;38.35;26.33;;;18.10;99.90;;;;;;4951873;28;20062;-74
2022/11/01 12:21:53;;;;;;;34.85;24.10;;;18.20;99.90;;;;;;4950480;29;20081;-75
2022/11/01 12:24:25;;;;;;;37.90;26.23;;;18.20;99.90;;;;;;4947256;28;20062;-75
2022/11/01 12:26:56;;;;;;;38.30;24.85;;;18.30;99.90;;;;;;4952204;29;20047;-73
2022/11/01 12:29:32;;;;;;;39.30;27.05;;;18.40;99.90;;;;;;4951705;28;20023;-74
2022/11/01 12:32:05;;;;;;;43.65;27.23;;;18.40;99.90;;;;;;4951077;29;20046;-74
2022/11/01 12:34:35;;;;;;;38.65;26.08;;;18.50;99.90;;;;;;4950955;28;20097;-75
2022/11/01 12:37:16;;;;;;;42.40;26.48;;;18.50;99.90;;;;;;4951369;29;20035;-75
2022/11/01 12:40:15;;;;;;;39.88;26.88;;;18.50;99.90;;;;;;4951098;29;20109;-73
2022/11/01 12:42:53;;;;;;;36.75;25.13;;;18.60;99.90;;;;;;4913229;29;20048;-74
2022/11/01 12:45:19;;;;;;;33.45;24.20;;;18.60;99.90;;;;;;4913135;29;20139;-73
2022/11/01 12:47:51;;;;;;;37.67;24.70;;;18.60;99.90;;;;;;4912700;29;20111;-74
2022/11/01 12:50:31;;;;;;;41.13;26.05;;;18.60;99.90;;;;;;4913135;29;20032;-74
2022/11/01 12:53:03;;;;;;;35.47;26.00;;;18.70;99.90;;;;;;4955749;28;20489;-74